Portada
METAR-TAF:

METAR-TAF

Aeroports :

Turaif, Aràbia Saudita

latitud: 31-41N, longitud: 038-44E, altitud: 813 m

Observació

L'informe es va fer fa 1 hora i 11 minuts, a les 02:00 UTC
Vent 8 kt del Oest/Nord-Oest
Temperatura 26°C
Humitat 48%
Pressió 1011 hPa
Visibilitat 10 km o més
sense núvols per sota de 1500 mi sense presència de cumulonimbus.

METAR: OETR 270200Z 30008KT CAVOK 26/14 Q1011 NOSIG

Hora: 06:11 (03:11 UTC)

Pronòstic

L'informe es va fer fa 4 hores i 11 minuts, a les 23:00 UTC
Pronòstic vàlid del 27 a les 00 UTC al 28 a les 06 UTC
Vent 10 kt del Nord/Nord-Est
Visibilitat 10 km o més
sense núvols per sota de 1500 mi sense presència de cumulonimbus.
Evolucionant progressivament
l' 27 a les 10 UTC al 27 a les 12 UTC
Vent 13 kt del Nord-Oest

TAF: OETR 262300Z 2700/2806 02010KT CAVOK BECMG 2710/2712 32013KT

Observacions i pronòstics meteorològics de més de 4000 aeroports (METAR i TAF).

Les estacions disponibles són els punts grocs i vermells al mapa.

Posi el ratolí al punt desitjat per veure el nom de l'estació.

Feu clic per veure les observacions i els pronòstics meteorològics.

Per canviar el mapa: feu clic els botons verds amb una creu de color negre per apropar; al botó verd amb un guió per allunyar la imatge; o en les fletxes verdes per a mapes adjacents.


METAR-TAF: